createdAt,value
2022-12-31T08:18:44.274Z,13.89
2022-12-31T08:21:48.239Z,14.01
2022-12-31T08:24:35.856Z,14.23
2022-12-31T08:28:02.615Z,14.63
2022-12-31T08:33:29.043Z,14.57
2022-12-31T08:36:15.859Z,14.57
2022-12-31T08:39:31.617Z,14.79
2022-12-31T08:42:03.684Z,14.64
2022-12-31T08:45:21.986Z,15.03
2022-12-31T08:48:30.118Z,15.25
2022-12-31T08:50:58.510Z,15.48
2022-12-31T08:53:26.603Z,15.70
2022-12-31T08:56:07.719Z,15.58
2022-12-31T08:58:53.476Z,15.50
2022-12-31T09:01:27.961Z,15.87
2022-12-31T09:04:43.159Z,15.91
2022-12-31T09:07:12.067Z,16.14
2022-12-31T09:10:32.146Z,16.18
2022-12-31T09:13:59.325Z,16.41
2022-12-31T09:17:16.639Z,16.50
2022-12-31T09:19:43.975Z,16.69
2022-12-31T09:22:11.981Z,17.45
2022-12-31T09:24:39.749Z,17.13
2022-12-31T09:27:57.771Z,17.13
2022-12-31T09:30:32.483Z,17.21
2022-12-31T09:34:06.998Z,16.92
2022-12-31T09:36:50.614Z,16.69
2022-12-31T09:39:51.043Z,16.70
2022-12-31T09:43:44.379Z,16.85
2022-12-31T09:47:33.668Z,16.93
2022-12-31T09:51:21.684Z,17.07
2022-12-31T09:54:51.556Z,17.09
2022-12-31T09:58:07.590Z,16.91
2022-12-31T10:01:26.680Z,17.30
2022-12-31T10:05:26.555Z,17.74
2022-12-31T10:08:56.783Z,17.76
2022-12-31T10:12:34.773Z,17.47
2022-12-31T10:15:42.092Z,17.69
2022-12-31T10:19:08.145Z,17.69
2022-12-31T10:22:36.876Z,17.86
2022-12-31T10:26:06.036Z,17.77
2022-12-31T10:29:48.785Z,17.86
2022-12-31T10:32:32.054Z,17.70
2022-12-31T10:35:15.099Z,18.05
2022-12-31T10:38:29.757Z,18.17
2022-12-31T10:41:48.914Z,18.03
2022-12-31T10:44:53.731Z,18.20
2022-12-31T10:48:55.134Z,18.46
2022-12-31T10:51:57.551Z,18.37
2022-12-31T10:55:29.251Z,18.72
2022-12-31T10:58:50.259Z,18.81
2022-12-31T11:01:54.176Z,18.83
2022-12-31T11:05:10.561Z,19.05
2022-12-31T11:08:08.662Z,19.33
2022-12-31T11:11:33.523Z,19.45
2022-12-31T11:14:54.013Z,19.47
2022-12-31T11:18:14.889Z,19.64
2022-12-31T11:21:27.767Z,19.58
2022-12-31T11:24:45.202Z,19.55
2022-12-31T11:28:10.182Z,19.49
2022-12-31T11:31:23.836Z,19.48
2022-12-31T11:34:43.101Z,19.57
2022-12-31T11:37:54.585Z,19.44
2022-12-31T11:41:00.852Z,19.37
2022-12-31T11:43:55.604Z,19.69
2022-12-31T11:46:59.836Z,19.59
2022-12-31T11:50:09.168Z,19.68
2022-12-31T11:53:19.070Z,19.54
2022-12-31T11:56:24.710Z,19.75
2022-12-31T11:58:55.834Z,19.51
2022-12-31T12:02:01.705Z,19.62
2022-12-31T12:04:30.046Z,19.65
2022-12-31T12:06:57.847Z,19.47
2022-12-31T12:09:34.391Z,19.53
2022-12-31T12:12:06.275Z,19.55
2022-12-31T12:14:39.304Z,19.47
2022-12-31T12:17:22.009Z,19.35
2022-12-31T12:19:56.869Z,19.11
2022-12-31T12:22:29.596Z,19.48
2022-12-31T12:25:20.502Z,19.24
2022-12-31T12:27:48.337Z,19.44
2022-12-31T12:30:27.876Z,19.41
2022-12-31T12:33:04.790Z,19.31
2022-12-31T12:35:36.043Z,19.28
2022-12-31T12:38:14.334Z,19.19
2022-12-31T12:40:42.035Z,19.11
2022-12-31T12:43:30.385Z,18.97
2022-12-31T12:46:05.533Z,18.96
2022-12-31T12:48:44.674Z,19.01
2022-12-31T12:52:04.877Z,18.93
2022-12-31T12:55:00.659Z,18.89
2022-12-31T12:57:46.458Z,18.93
2022-12-31T13:00:45.220Z,18.89
2022-12-31T13:04:35.622Z,18.96
2022-12-31T13:07:45.615Z,19.12
2022-12-31T13:11:06.159Z,19.12
2022-12-31T13:14:28.844Z,19.11
2022-12-31T13:18:01.498Z,19.01
2022-12-31T13:21:26.364Z,19.64
2022-12-31T13:24:28.369Z,19.77
2022-12-31T13:27:27.598Z,18.92
2022-12-31T13:30:01.556Z,18.94
2022-12-31T13:33:00.283Z,19.02
2022-12-31T13:35:57.465Z,18.93
2022-12-31T13:38:54.284Z,18.86
2022-12-31T13:41:34.563Z,18.96
2022-12-31T13:44:41.854Z,18.95
2022-12-31T13:47:37.109Z,18.85
2022-12-31T13:50:22.953Z,19.01
2022-12-31T13:53:36.626Z,18.88
2022-12-31T13:56:24.047Z,18.90
2022-12-31T13:59:02.059Z,18.75
2022-12-31T14:01:48.168Z,18.60
2022-12-31T14:04:33.709Z,18.63
2022-12-31T14:07:36.623Z,18.65
2022-12-31T14:10:16.098Z,18.78
2022-12-31T14:13:36.400Z,18.82
2022-12-31T14:17:02.634Z,18.86
2022-12-31T14:20:00.369Z,18.76
2022-12-31T14:23:24.518Z,18.70
2022-12-31T14:26:37.359Z,18.65
2022-12-31T14:29:45.824Z,18.59
2022-12-31T14:33:16.417Z,18.46
2022-12-31T14:36:32.303Z,18.32
2022-12-31T14:40:00.483Z,18.48
2022-12-31T14:43:18.075Z,18.25
2022-12-31T14:46:39.647Z,18.39
2022-12-31T14:50:12.507Z,18.21
2022-12-31T14:53:04.098Z,18.26
2022-12-31T14:55:40.855Z,18.28
2022-12-31T14:58:32.417Z,18.31
2022-12-31T15:01:04.496Z,18.24
2022-12-31T15:03:31.615Z,18.00
2022-12-31T15:06:51.615Z,18.18
2022-12-31T15:10:34.138Z,18.00
2022-12-31T15:13:35.549Z,18.12
2022-12-31T15:16:38.700Z,17.99
2022-12-31T15:20:19.045Z,18.02
2022-12-31T15:22:52.253Z,17.92
2022-12-31T15:25:40.458Z,17.83
2022-12-31T15:28:40.683Z,17.73
2022-12-31T15:31:18.130Z,17.91
2022-12-31T15:34:23.779Z,17.92
2022-12-31T15:37:00.689Z,17.87
2022-12-31T15:39:41.862Z,17.91
2022-12-31T15:43:08.012Z,17.56
2022-12-31T15:45:41.126Z,17.67
2022-12-31T15:48:44.083Z,17.71
2022-12-31T15:51:30.585Z,17.48
2022-12-31T15:54:00.838Z,17.47
2022-12-31T15:56:45.218Z,17.56
2022-12-31T15:59:17.253Z,17.65
2022-12-31T16:01:46.782Z,17.37
2022-12-31T16:04:28.675Z,17.42
2022-12-31T16:07:01.982Z,17.41
2022-12-31T16:09:35.912Z,17.24
2022-12-31T16:12:19.170Z,17.28
2022-12-31T16:14:55.424Z,17.06
2022-12-31T16:17:36.896Z,17.32
2022-12-31T16:20:26.987Z,17.35
2022-12-31T16:22:57.582Z,17.18
2022-12-31T16:25:31.906Z,17.10
2022-12-31T16:28:01.652Z,16.92
2022-12-31T16:30:37.212Z,16.80
2022-12-31T16:33:12.356Z,17.04
2022-12-31T16:35:39.991Z,16.86
2022-12-31T16:38:18.768Z,16.98
2022-12-31T16:41:19.807Z,16.75
2022-12-31T16:43:50.230Z,16.79
2022-12-31T16:46:31.223Z,16.70
2022-12-31T16:49:19.882Z,16.83
2022-12-31T16:51:47.704Z,16.66
2022-12-31T16:54:44.164Z,16.69
2022-12-31T16:57:24.546Z,16.83
2022-12-31T17:00:02.223Z,16.76
2022-12-31T17:02:40.619Z,16.70
2022-12-31T17:05:28.756Z,16.81
2022-12-31T17:07:57.382Z,16.59
2022-12-31T17:10:36.422Z,16.51
2022-12-31T17:13:34.009Z,16.66
2022-12-31T17:16:02.259Z,16.63
2022-12-31T17:18:38.553Z,16.50
2022-12-31T17:21:10.813Z,16.37
2022-12-31T17:23:39.867Z,16.54
2022-12-31T17:26:34.736Z,16.40
2022-12-31T17:29:05.182Z,16.35
2022-12-31T17:31:39.436Z,16.28
2022-12-31T17:34:22.805Z,16.30
2022-12-31T17:37:27.580Z,16.17
2022-12-31T17:42:48.773Z,16.29
2022-12-31T17:45:22.004Z,16.23
2022-12-31T17:47:53.664Z,16.17
2022-12-31T17:50:27.902Z,16.30
2022-12-31T17:53:12.493Z,16.27
2022-12-31T17:55:45.526Z,16.14
2022-12-31T17:58:36.445Z,16.22
2022-12-31T18:01:09.258Z,16.20
2022-12-31T18:03:36.642Z,15.91
2022-12-31T18:06:05.444Z,16.02
2022-12-31T18:08:32.857Z,16.08
2022-12-31T18:11:00.158Z,15.80
2022-12-31T18:13:28.293Z,16.02
2022-12-31T18:15:56.112Z,15.75
2022-12-31T18:18:28.523Z,16.05
2022-12-31T18:21:03.361Z,15.99
2022-12-31T18:23:47.978Z,16.00
2022-12-31T18:26:21.099Z,15.95
2022-12-31T18:28:50.259Z,15.80
2022-12-31T18:31:30.859Z,15.74
2022-12-31T18:33:59.661Z,15.63
2022-12-31T18:36:28.513Z,15.77
2022-12-31T18:38:55.950Z,15.72
2022-12-31T18:41:30.031Z,15.70
2022-12-31T18:43:57.380Z,15.72
2022-12-31T18:46:26.914Z,15.58
2022-12-31T18:48:54.193Z,15.63
2022-12-31T18:51:31.265Z,15.58
2022-12-31T18:54:01.737Z,15.53
2022-12-31T18:56:29.201Z,15.62
2022-12-31T18:58:56.734Z,15.52
2022-12-31T19:01:38.505Z,15.61
2022-12-31T19:04:24.978Z,15.56
2022-12-31T19:06:55.446Z,15.45
2022-12-31T19:12:15.006Z,15.68
2022-12-31T19:14:42.436Z,15.57
2022-12-31T19:19:36.376Z,15.45
2022-12-31T19:22:03.701Z,15.56
2022-12-31T19:24:31.015Z,15.37
2022-12-31T19:26:58.347Z,15.32
2022-12-31T19:29:28.425Z,15.25
2022-12-31T19:31:55.722Z,15.21
2022-12-31T19:34:23.082Z,15.28
2022-12-31T19:36:50.418Z,15.35
2022-12-31T19:39:21.279Z,15.05
2022-12-31T19:41:54.747Z,15.27
2022-12-31T19:44:26.125Z,15.29
2022-12-31T19:46:53.486Z,15.39
2022-12-31T19:49:20.795Z,15.29
2022-12-31T19:51:48.175Z,15.10
2022-12-31T19:54:15.474Z,15.17
2022-12-31T19:56:42.818Z,15.12
2022-12-31T19:59:11.458Z,15.27
2022-12-31T20:01:39.145Z,15.23
2022-12-31T20:04:06.871Z,15.22
2022-12-31T20:06:34.218Z,15.20
2022-12-31T20:09:03.414Z,15.03
2022-12-31T20:11:30.780Z,15.17
2022-12-31T20:13:58.288Z,15.15
2022-12-31T20:16:27.578Z,15.14
2022-12-31T20:18:55.264Z,15.08
2022-12-31T20:21:29.175Z,15.11
2022-12-31T20:23:56.988Z,15.18
2022-12-31T20:26:25.795Z,15.31
2022-12-31T20:28:53.822Z,15.16
2022-12-31T20:31:28.426Z,15.11
2022-12-31T20:33:56.238Z,14.95
2022-12-31T20:36:24.591Z,15.03
2022-12-31T20:38:51.962Z,15.12
2022-12-31T20:41:22.889Z,15.15
2022-12-31T20:43:50.906Z,14.96
2022-12-31T20:46:25.932Z,14.90
2022-12-31T20:49:01.736Z,14.90
